createdAt,value
2018-06-22T00:01:38.869Z,52.28
2018-06-22T00:04:09.567Z,51.85
2018-06-22T00:06:40.606Z,51.53
2018-06-22T00:09:11.809Z,51.29
2018-06-22T00:11:42.521Z,51.29
2018-06-22T00:14:12.617Z,51.66
2018-06-22T00:16:43.500Z,51.27
2018-06-22T00:19:14.162Z,51.33
2018-06-22T00:21:44.922Z,51.77
2018-06-22T00:24:15.736Z,52.33
2018-06-22T00:26:46.453Z,51.73
2018-06-22T00:29:17.146Z,51.20
2018-06-22T00:31:47.926Z,51.10
2018-06-22T00:34:18.673Z,51.20
2018-06-22T00:36:49.526Z,50.76
2018-06-22T00:39:20.239Z,50.68
2018-06-22T00:41:50.978Z,50.73
2018-06-22T00:44:21.608Z,50.54
2018-06-22T00:46:52.417Z,49.91
2018-06-22T00:49:22.898Z,52.83
2018-06-22T00:51:53.747Z,53.62
2018-06-22T00:54:23.832Z,53.71
2018-06-22T00:56:54.569Z,55.51
2018-06-22T00:59:25.097Z,55.67
2018-06-22T01:01:55.962Z,55.04
2018-06-22T01:04:26.453Z,55.54
2018-06-22T01:06:57.121Z,55.67
2018-06-22T01:09:27.361Z,55.98
2018-06-22T01:11:58.317Z,57.01
2018-06-22T01:14:28.965Z,57.75
2018-06-22T01:16:59.793Z,56.83
2018-06-22T01:19:30.326Z,55.98
2018-06-22T01:22:01.302Z,55.66
2018-06-22T01:24:31.565Z,56.00
2018-06-22T01:27:02.402Z,56.62
2018-06-22T01:29:33.270Z,56.84
2018-06-22T01:32:04.055Z,57.16
2018-06-22T01:34:34.786Z,56.42
2018-06-22T01:37:05.594Z,57.38
2018-06-22T01:39:36.299Z,57.44
2018-06-22T01:42:07.038Z,58.07
2018-06-22T01:44:37.673Z,58.53
2018-06-22T01:47:08.369Z,59.13
2018-06-22T01:49:39.028Z,58.53
2018-06-22T01:52:09.937Z,58.54
2018-06-22T01:54:40.635Z,58.58
2018-06-22T01:57:10.921Z,58.28
2018-06-22T01:59:41.660Z,57.55
2018-06-22T02:02:12.322Z,57.26
2018-06-22T02:04:43.147Z,56.94
2018-06-22T02:07:13.797Z,56.64
2018-06-22T02:09:44.541Z,56.31
2018-06-22T02:12:15.281Z,56.29
2018-06-22T02:14:47.390Z,56.36
2018-06-22T02:17:18.237Z,56.31
2018-06-22T02:19:48.849Z,56.04
2018-06-22T02:22:19.641Z,56.90
2018-06-22T02:24:50.323Z,56.51
2018-06-22T02:27:21.150Z,55.78
2018-06-22T02:29:51.690Z,55.46
2018-06-22T02:32:22.601Z,54.70
2018-06-22T02:34:53.361Z,54.12
2018-06-22T02:37:24.503Z,53.97
2018-06-22T02:39:55.134Z,54.21
2018-06-22T02:42:25.822Z,54.86
2018-06-22T02:44:56.497Z,54.92
2018-06-22T02:47:27.481Z,54.88
2018-06-22T02:49:58.202Z,54.94
2018-06-22T02:52:29.814Z,54.41
2018-06-22T02:55:00.399Z,54.69
2018-06-22T02:57:31.308Z,55.86
2018-06-22T03:00:01.573Z,56.02
2018-06-22T03:02:32.275Z,56.11
2018-06-22T03:05:02.373Z,55.97
2018-06-22T03:07:33.364Z,55.93
2018-06-22T03:10:06.334Z,55.84
2018-06-22T03:12:37.059Z,55.79
2018-06-22T03:15:07.637Z,54.95
2018-06-22T03:17:38.317Z,55.39
2018-06-22T03:20:08.926Z,55.37
2018-06-22T03:22:39.720Z,55.99
2018-06-22T03:25:10.366Z,55.46
2018-06-22T03:27:41.087Z,54.47
2018-06-22T03:30:11.722Z,55.36
2018-06-22T03:32:42.433Z,55.02
2018-06-22T03:35:13.180Z,54.27
2018-06-22T03:37:44.010Z,55.24
2018-06-22T03:40:14.666Z,55.12
2018-06-22T03:42:45.389Z,55.44
2018-06-22T03:45:16.027Z,56.46
2018-06-22T03:47:47.130Z,56.00
2018-06-22T03:50:17.798Z,55.78
2018-06-22T03:52:48.438Z,55.10
2018-06-22T03:55:19.057Z,55.48
2018-06-22T03:57:49.731Z,55.51
2018-06-22T04:00:20.433Z,54.10
2018-06-22T04:02:51.198Z,54.25
2018-06-22T04:05:21.904Z,54.18
2018-06-22T04:07:52.770Z,53.91
2018-06-22T04:10:23.464Z,53.51
2018-06-22T04:12:54.201Z,52.93
2018-06-22T04:15:24.828Z,52.43
2018-06-22T04:17:56.154Z,51.91
2018-06-22T04:20:27.270Z,51.99
2018-06-22T04:22:58.145Z,51.30
2018-06-22T04:25:28.793Z,51.97
2018-06-22T04:28:00.015Z,51.32
2018-06-22T04:30:30.666Z,50.95
2018-06-22T04:33:01.346Z,50.76
2018-06-22T04:35:31.428Z,50.93
2018-06-22T04:38:02.209Z,49.25
2018-06-22T04:40:32.986Z,50.22
2018-06-22T04:43:03.640Z,50.21
2018-06-22T04:45:33.825Z,49.73
2018-06-22T04:48:04.662Z,50.68
2018-06-22T04:50:35.278Z,51.29
2018-06-22T04:53:06.111Z,50.54
2018-06-22T04:55:36.688Z,49.29
2018-06-22T04:58:07.394Z,49.60
2018-06-22T05:00:38.022Z,48.23
2018-06-22T05:03:08.798Z,47.37
2018-06-22T05:05:38.797Z,46.93
2018-06-22T05:08:09.605Z,47.15
2018-06-22T05:10:40.354Z,45.10
2018-06-22T05:13:11.128Z,45.50
2018-06-22T05:15:41.478Z,45.96
2018-06-22T05:18:12.784Z,45.86
2018-06-22T05:20:43.408Z,45.37
2018-06-22T05:23:14.259Z,44.53
2018-06-22T05:25:44.873Z,44.96
2018-06-22T05:28:15.677Z,43.61
2018-06-22T05:30:46.313Z,43.59
2018-06-22T05:33:17.186Z,43.06
2018-06-22T05:35:47.877Z,42.34
2018-06-22T05:38:18.617Z,41.64
2018-06-22T05:40:49.401Z,41.36
2018-06-22T05:43:19.612Z,41.61
2018-06-22T05:45:50.250Z,39.94
2018-06-22T05:48:20.414Z,39.86
2018-06-22T05:50:51.033Z,40.17
2018-06-22T05:53:21.149Z,39.13
2018-06-22T05:55:51.920Z,38.41
2018-06-22T05:58:22.817Z,37.65
2018-06-22T06:00:53.730Z,37.71
2018-06-22T06:03:24.983Z,36.89
2018-06-22T06:05:55.768Z,36.31
2018-06-22T06:08:26.545Z,36.12
2018-06-22T06:10:56.798Z,36.07
2018-06-22T06:13:27.286Z,34.81
2018-06-22T06:15:57.853Z,36.15
2018-06-22T06:18:28.509Z,35.29
2018-06-22T06:20:59.192Z,34.63
2018-06-22T06:23:29.120Z,34.43
2018-06-22T06:25:59.872Z,35.54
2018-06-22T06:28:30.682Z,34.93
2018-06-22T06:31:01.574Z,34.19
2018-06-22T06:33:32.266Z,34.58
2018-06-22T06:36:03.274Z,34.86
2018-06-22T06:38:33.853Z,34.39
2018-06-22T06:41:04.755Z,33.34
2018-06-22T06:43:35.225Z,34.18
2018-06-22T06:46:05.596Z,33.48
2018-06-22T06:48:36.298Z,31.20
2018-06-22T06:51:06.986Z,30.66
2018-06-22T06:53:37.685Z,31.13
2018-06-22T06:56:08.426Z,30.46
2018-06-22T06:59:16.758Z,29.98
2018-06-22T07:01:47.582Z,30.22
2018-06-22T07:04:20.398Z,30.68
2018-06-22T07:06:52.996Z,30.67
2018-06-22T07:09:23.641Z,29.13
2018-06-22T07:11:54.997Z,29.69
2018-06-22T07:14:25.732Z,29.95
2018-06-22T07:16:56.425Z,30.61
2018-06-22T07:19:27.097Z,29.09
2018-06-22T07:21:57.914Z,29.98
2018-06-22T07:24:28.605Z,29.67
2018-06-22T07:26:59.390Z,28.87
2018-06-22T07:29:31.825Z,27.39
2018-06-22T07:32:02.691Z,28.41
2018-06-22T07:34:33.385Z,27.47
2018-06-22T07:37:04.429Z,26.51
2018-06-22T07:39:34.944Z,27.26
2018-06-22T07:42:05.277Z,28.38
2018-06-22T07:44:36.084Z,28.52
2018-06-22T07:47:06.923Z,30.10
2018-06-22T07:49:37.650Z,30.10
2018-06-22T07:52:08.530Z,27.89
2018-06-22T07:54:39.117Z,26.35
2018-06-22T07:57:09.962Z,29.27
2018-06-22T07:59:40.082Z,27.30
2018-06-22T08:02:10.781Z,30.13
2018-06-22T08:04:41.574Z,28.79
2018-06-22T08:07:12.437Z,29.68
2018-06-22T08:09:43.037Z,28.50
2018-06-22T08:12:13.918Z,27.71
2018-06-22T08:14:44.743Z,28.24
2018-06-22T08:17:15.553Z,28.24
2018-06-22T08:19:46.341Z,27.06
2018-06-22T08:22:16.993Z,26.80
2018-06-22T08:24:47.265Z,28.07
2018-06-22T08:27:17.973Z,29.10
2018-06-22T08:29:48.714Z,27.74
2018-06-22T08:32:19.610Z,27.96
2018-06-22T08:34:50.357Z,27.68
2018-06-22T08:37:20.834Z,26.21
2018-06-22T08:39:51.606Z,28.00
2018-06-22T08:42:22.390Z,27.91
2018-06-22T08:44:53.114Z,27.74
2018-06-22T08:47:23.849Z,27.85
2018-06-22T08:49:54.377Z,26.32
2018-06-22T08:52:25.129Z,26.82
2018-06-22T08:54:55.625Z,26.02
2018-06-22T08:57:26.386Z,25.31
2018-06-22T08:59:57.058Z,26.22
2018-06-22T09:02:27.790Z,25.99
2018-06-22T09:04:58.422Z,24.19
2018-06-22T09:07:29.171Z,25.31
2018-06-22T09:09:59.883Z,23.65
2018-06-22T09:12:30.593Z,24.80
2018-06-22T09:15:01.256Z,26.12
2018-06-22T09:17:32.191Z,27.26
2018-06-22T09:20:02.752Z,25.15
2018-06-22T09:22:33.548Z,23.01
2018-06-22T09:25:04.251Z,23.33
2018-06-22T09:27:35.126Z,24.57
2018-06-22T09:30:06.063Z,24.25
2018-06-22T09:32:37.185Z,23.43
2018-06-22T09:35:08.809Z,24.07
2018-06-22T09:37:39.681Z,24.00
2018-06-22T09:40:10.198Z,26.46
2018-06-22T09:42:40.884Z,25.89
2018-06-22T09:45:11.552Z,25.01
2018-06-22T09:47:42.217Z,26.28
2018-06-22T09:50:12.315Z,25.05
2018-06-22T09:52:42.966Z,23.97
2018-06-22T09:55:13.808Z,23.90
2018-06-22T09:57:44.526Z,24.02
2018-06-22T10:00:15.964Z,23.44
2018-06-22T10:02:46.638Z,22.85
2018-06-22T10:05:17.566Z,25.59
2018-06-22T10:07:47.949Z,24.37
2018-06-22T10:10:18.692Z,22.62
2018-06-22T10:12:49.465Z,22.62
2018-06-22T10:15:20.149Z,23.64
2018-06-22T10:17:50.273Z,21.56
2018-06-22T10:20:21.138Z,22.30
2018-06-22T10:22:51.885Z,23.02
2018-06-22T10:25:22.661Z,24.71
2018-06-22T10:27:53.460Z,21.15
2018-06-22T10:30:24.957Z,21.87
2018-06-22T10:32:55.640Z,21.68
2018-06-22T10:35:26.453Z,22.07
2018-06-22T10:37:57.108Z,22.10
2018-06-22T10:40:27.958Z,21.26
2018-06-22T10:42:58.154Z,20.44
2018-06-22T10:45:28.909Z,20.65
2018-06-22T10:47:59.561Z,21.37
2018-06-22T10:50:29.922Z,21.88
2018-06-22T10:53:00.514Z,20.35
2018-06-22T10:55:31.766Z,18.07
2018-06-22T10:58:02.471Z,17.39
2018-06-22T11:00:33.601Z,17.86
2018-06-22T11:03:04.462Z,19.02
2018-06-22T11:05:35.368Z,15.33
2018-06-22T11:08:06.038Z,17.35
2018-06-22T11:10:36.785Z,15.41
2018-06-22T11:13:07.488Z,16.99
2018-06-22T11:15:38.318Z,15.85
2018-06-22T11:18:09.162Z,16.67
2018-06-22T11:20:39.961Z,16.68
2018-06-22T11:23:10.725Z,16.31
2018-06-22T11:25:41.478Z,19.92
2018-06-22T11:28:12.194Z,17.37
2018-06-22T11:30:43.300Z,18.02
2018-06-22T11:33:13.938Z,17.47
2018-06-22T11:35:44.713Z,17.01
2018-06-22T11:38:15.289Z,16.79
2018-06-22T11:40:45.468Z,16.35
2018-06-22T11:43:16.216Z,17.19
2018-06-22T11:45:47.182Z,16.23
2018-06-22T11:48:17.500Z,17.35
2018-06-22T11:50:48.319Z,17.80
2018-06-22T11:53:19.065Z,17.85
2018-06-22T11:55:49.964Z,16.46
2018-06-22T11:58:20.700Z,15.84
2018-06-22T12:00:51.577Z,16.78
2018-06-22T12:03:22.265Z,16.54
2018-06-22T12:05:53.101Z,17.26
2018-06-22T12:08:23.761Z,15.46
2018-06-22T12:10:54.017Z,15.30
2018-06-22T12:13:24.606Z,14.74
2018-06-22T12:15:54.909Z,15.87
2018-06-22T12:18:25.489Z,14.71
2018-06-22T12:20:56.381Z,16.41
2018-06-22T12:23:26.977Z,16.87
2018-06-22T12:25:57.929Z,14.66
2018-06-22T12:28:28.618Z,14.79
2018-06-22T12:30:59.370Z,15.62
2018-06-22T12:33:29.451Z,16.21
2018-06-22T12:35:59.903Z,16.03
2018-06-22T12:38:30.754Z,15.38
2018-06-22T12:41:01.594Z,16.89
2018-06-22T12:43:32.370Z,15.16
2018-06-22T12:46:03.111Z,16.73
2018-06-22T12:48:33.846Z,17.02
2018-06-22T12:51:04.685Z,16.72
2018-06-22T12:53:35.444Z,14.83
2018-06-22T12:56:07.014Z,13.93
2018-06-22T12:58:37.931Z,14.17
2018-06-22T13:01:08.709Z,14.51
2018-06-22T13:03:39.490Z,16.31
2018-06-22T13:06:10.346Z,13.86
2018-06-22T13:08:40.975Z,15.41
2018-06-22T13:11:11.940Z,16.72
2018-06-22T13:13:42.698Z,15.80
2018-06-22T13:16:13.790Z,15.16
2018-06-22T13:18:44.377Z,15.51
2018-06-22T13:21:14.785Z,16.28
2018-06-22T13:23:45.485Z,17.31
2018-06-22T13:26:16.429Z,17.60
2018-06-22T13:28:47.182Z,17.14
2018-06-22T13:31:17.918Z,17.33
2018-06-22T13:33:48.385Z,21.22
2018-06-22T13:36:19.318Z,23.10
2018-06-22T13:38:50.009Z,22.82
2018-06-22T13:41:21.205Z,23.46
2018-06-22T13:43:51.802Z,22.82
2018-06-22T13:46:22.613Z,23.49
2018-06-22T13:48:54.082Z,23.72
2018-06-22T13:51:24.809Z,24.00
2018-06-22T13:53:55.454Z,25.41
2018-06-22T13:56:26.386Z,25.05
2018-06-22T13:58:57.043Z,26.89
2018-06-22T14:01:27.643Z,26.63
2018-06-22T14:04:03.513Z,26.30
2018-06-22T14:06:39.370Z,26.74
2018-06-22T14:09:12.770Z,25.22
2018-06-22T14:11:43.480Z,25.66
2018-06-22T14:14:14.650Z,24.86
2018-06-22T14:16:44.993Z,24.87
2018-06-22T14:19:15.768Z,24.63
2018-06-22T14:21:46.650Z,25.37
2018-06-22T14:24:17.477Z,25.52
2018-06-22T14:26:49.305Z,25.70
2018-06-22T14:29:20.073Z,25.70
2018-06-22T14:31:50.902Z,25.24
2018-06-22T14:34:20.924Z,25.69
2018-06-22T14:36:51.543Z,25.72
2018-06-22T14:39:22.387Z,26.09
2018-06-22T14:41:53.034Z,25.77
2018-06-22T14:44:23.826Z,26.13
2018-06-22T14:46:54.495Z,26.50
2018-06-22T14:49:25.065Z,26.60
2018-06-22T14:52:02.722Z,26.30
2018-06-22T14:54:38.719Z,25.92
2018-06-22T14:57:14.434Z,25.70
2018-06-22T14:59:50.240Z,26.45
2018-06-22T15:02:25.762Z,26.40
2018-06-22T15:05:01.373Z,26.37
2018-06-22T15:07:36.949Z,26.03
2018-06-22T15:10:07.875Z,25.69
2018-06-22T15:12:38.503Z,26.37
2018-06-22T15:15:09.293Z,27.53
2018-06-22T15:17:55.056Z,27.61
2018-06-22T15:20:25.820Z,28.29
2018-06-22T15:22:56.455Z,28.31
2018-06-22T15:25:27.365Z,28.13
2018-06-22T15:27:58.110Z,28.30
2018-06-22T15:30:28.731Z,28.28
2018-06-22T15:32:59.337Z,28.11
2018-06-22T15:35:34.936Z,28.38
2018-06-22T15:38:10.785Z,30.18
2018-06-22T15:40:46.615Z,29.90
2018-06-22T15:43:22.288Z,30.15
2018-06-22T15:46:08.790Z,30.40
2018-06-22T15:48:50.629Z,30.58
2018-06-22T15:51:25.701Z,30.95
2018-06-22T15:54:58.921Z,32.35
2018-06-22T15:57:29.629Z,32.75
2018-06-22T16:00:00.376Z,32.66
2018-06-22T16:02:36.270Z,32.04
2018-06-22T16:05:06.465Z,32.10
2018-06-22T16:07:37.214Z,32.45
2018-06-22T16:10:07.870Z,31.41
2018-06-22T16:12:40.177Z,30.14
2018-06-22T16:15:17.681Z,28.69
2018-06-22T16:17:54.313Z,28.97
2018-06-22T16:20:29.785Z,28.97
2018-06-22T16:23:05.229Z,29.63
2018-06-22T16:25:40.900Z,30.40
2018-06-22T16:28:11.713Z,30.10
2018-06-22T16:30:42.513Z,30.58
2018-06-22T16:33:12.713Z,29.63
2018-06-22T16:35:43.528Z,30.48
2018-06-22T16:38:14.297Z,30.07
2018-06-22T16:40:45.092Z,30.46
2018-06-22T16:43:15.923Z,30.22
2018-06-22T16:45:46.564Z,29.13
2018-06-22T16:48:17.340Z,28.27
2018-06-22T16:50:48.025Z,28.83
2018-06-22T16:53:19.517Z,29.51
2018-06-22T16:55:49.561Z,28.69
2018-06-22T16:58:25.150Z,28.95
2018-06-22T17:00:55.838Z,29.97
2018-06-22T17:03:26.610Z,31.17
2018-06-22T17:05:57.400Z,30.82
2018-06-22T17:08:33.266Z,30.59
2018-06-22T17:11:08.916Z,31.23
2018-06-22T17:13:45.051Z,32.90
2018-06-22T17:16:20.586Z,33.02
2018-06-22T17:18:57.432Z,34.52
2018-06-22T17:21:28.085Z,34.37
2018-06-22T17:23:59.130Z,34.74
2018-06-22T17:26:29.718Z,35.01
2018-06-22T17:29:00.416Z,35.78
2018-06-22T17:31:31.070Z,35.81
2018-06-22T17:34:01.802Z,35.13
2018-06-22T17:36:32.526Z,36.22
2018-06-22T17:39:03.435Z,35.58
2018-06-22T17:41:34.026Z,35.26
2018-06-22T17:44:04.922Z,35.51
2018-06-22T17:46:35.730Z,36.02
2018-06-22T17:49:06.453Z,35.97
2018-06-22T17:51:37.126Z,35.46
2018-06-22T17:54:08.170Z,35.74
2018-06-22T17:56:38.717Z,35.50
2018-06-22T17:59:14.630Z,36.41
2018-06-22T18:01:50.257Z,37.29
2018-06-22T18:04:25.751Z,37.97
2018-06-22T18:07:01.701Z,37.82
2018-06-22T18:09:37.039Z,37.56
2018-06-22T18:12:12.463Z,37.48
2018-06-22T18:14:43.257Z,37.64
2018-06-22T18:17:14.056Z,38.09
2018-06-22T18:19:44.621Z,37.83
2018-06-22T18:22:15.150Z,38.10
2018-06-22T18:24:45.901Z,37.65
2018-06-22T18:27:16.518Z,37.77
2018-06-22T18:29:47.350Z,38.18
2018-06-22T18:32:18.018Z,37.92
2018-06-22T18:34:48.525Z,38.27
2018-06-22T18:37:18.817Z,38.55
2018-06-22T18:39:49.880Z,38.43
2018-06-22T18:42:20.030Z,38.44
2018-06-22T18:44:50.661Z,38.24
2018-06-22T18:47:21.270Z,38.42
2018-06-22T18:49:52.057Z,38.73
2018-06-22T18:52:27.392Z,38.09
2018-06-22T18:57:08.552Z,38.83
2018-06-22T18:59:47.889Z,39.05
2018-06-22T19:02:23.766Z,39.51
2018-06-22T19:04:54.344Z,39.84
2018-06-22T19:07:25.141Z,39.52
2018-06-22T19:09:55.313Z,40.06
2018-06-22T19:12:25.709Z,39.63
2018-06-22T19:14:56.318Z,40.08
2018-06-22T19:17:26.930Z,39.67
2018-06-22T19:19:57.526Z,40.26
2018-06-22T19:22:28.269Z,40.44
2018-06-22T19:24:58.948Z,40.69
2018-06-22T19:27:29.686Z,40.60
2018-06-22T19:30:00.417Z,40.36
2018-06-22T19:32:31.544Z,41.17
2018-06-22T19:35:07.210Z,40.70
2018-06-22T19:37:37.889Z,41.54
2018-06-22T19:40:08.706Z,42.02
2018-06-22T19:42:39.494Z,41.26
2018-06-22T19:45:15.256Z,42.21
2018-06-22T19:47:50.940Z,42.85
2018-06-22T19:50:26.422Z,42.79
2018-06-22T19:53:02.258Z,43.84
2018-06-22T19:55:33.003Z,43.18
2018-06-22T19:58:05.074Z,43.45
2018-06-22T20:00:35.815Z,44.05
2018-06-22T20:03:06.632Z,44.24
2018-06-22T20:05:37.405Z,44.49
2018-06-22T20:08:08.073Z,44.88
2018-06-22T20:10:38.189Z,45.22
2018-06-22T20:13:08.794Z,46.05
2018-06-22T20:15:39.706Z,45.70
2018-06-22T20:18:10.356Z,46.64
2018-06-22T20:20:41.125Z,47.78
2018-06-22T20:23:11.923Z,46.86
2018-06-22T20:25:45.705Z,47.69
2018-06-22T20:28:17.410Z,48.03
2018-06-22T20:30:48.654Z,48.33
2018-06-22T20:33:21.753Z,49.16
2018-06-22T20:35:57.557Z,48.53
2018-06-22T20:38:33.230Z,49.30
2018-06-22T20:41:08.910Z,48.79
2018-06-22T20:43:44.126Z,49.02
2018-06-22T20:46:19.046Z,48.55
2018-06-22T20:48:54.688Z,49.08
2018-06-22T20:51:30.574Z,50.12
2018-06-22T20:54:01.330Z,50.52
2018-06-22T20:56:32.042Z,49.52
2018-06-22T20:59:02.149Z,49.61
2018-06-22T21:01:32.866Z,48.66
2018-06-22T21:04:03.875Z,48.62
2018-06-22T21:06:34.603Z,48.07
2018-06-22T21:09:06.706Z,47.94
2018-06-22T21:11:37.009Z,48.50
2018-06-22T21:14:09.354Z,48.59
2018-06-22T21:16:39.633Z,49.17
2018-06-22T21:19:10.654Z,49.29
2018-06-22T21:21:46.289Z,48.99
2018-06-22T21:24:16.919Z,49.85
2018-06-22T21:26:47.569Z,49.00
2018-06-22T21:29:23.304Z,49.17
2018-06-22T21:31:58.817Z,49.26
2018-06-22T21:34:33.804Z,48.90
2018-06-22T21:37:09.248Z,49.50
2018-06-22T21:39:40.093Z,49.83
2018-06-22T21:42:10.682Z,49.68
2018-06-22T21:44:41.574Z,48.98
2018-06-22T21:47:11.873Z,49.84
2018-06-22T21:49:43.046Z,50.56
2018-06-22T21:52:13.634Z,50.32
2018-06-22T21:54:44.570Z,50.59
2018-06-22T21:57:15.213Z,51.16
2018-06-22T21:59:46.001Z,50.73
2018-06-22T22:02:16.626Z,50.61
2018-06-22T22:04:47.802Z,51.01
2018-06-22T22:07:18.672Z,52.10
2018-06-22T22:09:49.253Z,52.54
2018-06-22T22:12:19.834Z,52.46
2018-06-22T22:14:50.650Z,53.60
2018-06-22T22:17:21.346Z,53.29
2018-06-22T22:19:52.393Z,53.08
2018-06-22T22:22:22.981Z,52.94
2018-06-22T22:24:53.727Z,52.97
2018-06-22T22:27:23.725Z,52.53
2018-06-22T22:29:54.537Z,53.43
2018-06-22T22:32:25.170Z,53.35
2018-06-22T22:34:55.748Z,53.78
2018-06-22T22:37:25.893Z,53.04
2018-06-22T22:39:56.525Z,52.94
2018-06-22T22:42:27.093Z,52.67
2018-06-22T22:44:57.811Z,52.30
2018-06-22T22:47:28.445Z,52.06
2018-06-22T22:49:59.110Z,51.52
2018-06-22T22:52:29.821Z,51.39
2018-06-22T22:55:00.761Z,51.17
2018-06-22T22:57:31.377Z,51.04
2018-06-22T23:00:02.054Z,51.05
2018-06-22T23:02:32.041Z,50.71
2018-06-22T23:05:02.761Z,51.36
2018-06-22T23:07:33.678Z,51.48
2018-06-22T23:10:04.421Z,51.46
2018-06-22T23:12:35.325Z,51.04
2018-06-22T23:15:06.142Z,50.77
2018-06-22T23:17:36.656Z,50.73
2018-06-22T23:20:07.574Z,50.36
2018-06-22T23:22:54.257Z,49.87
2018-06-22T23:25:24.836Z,50.48
2018-06-22T23:27:55.497Z,50.28
2018-06-22T23:30:26.222Z,50.18
2018-06-22T23:32:56.903Z,50.48
2018-06-22T23:35:27.465Z,50.70
2018-06-22T23:37:58.233Z,51.40
2018-06-22T23:40:28.902Z,51.34
2018-06-22T23:42:59.618Z,51.08
2018-06-22T23:45:30.418Z,51.77
2018-06-22T23:48:01.161Z,51.55
2018-06-22T23:50:31.257Z,51.54
2018-06-22T23:53:01.943Z,51.13
2018-06-22T23:55:32.677Z,52.49
2018-06-22T23:58:03.415Z,51.42
